createdAt,value
2023-03-05T00:00:44.707Z,74.82
2023-03-05T00:03:15.099Z,71.57
2023-03-05T00:05:45.376Z,67.78
2023-03-05T00:08:15.419Z,70.57
2023-03-05T00:10:45.255Z,73.32
2023-03-05T00:13:15.244Z,72.95
2023-03-05T00:15:45.424Z,78.10
2023-03-05T00:18:15.751Z,72.60
2023-03-05T00:20:47.031Z,82.45
2023-03-05T00:23:17.653Z,65.75
2023-03-05T00:25:48.914Z,72.27
2023-03-05T00:28:18.999Z,67.15
2023-03-05T00:30:48.965Z,59.78
2023-03-05T00:33:18.959Z,63.72
2023-03-05T00:35:49.532Z,66.65
2023-03-05T00:38:19.614Z,60.87
2023-03-05T00:40:52.820Z,74.18
2023-03-05T00:43:22.848Z,62.67
2023-03-05T00:45:52.791Z,57.13
2023-03-05T00:48:24.581Z,52.20
2023-03-05T00:50:55.295Z,52.00
2023-03-05T00:53:25.783Z,55.93
2023-03-05T00:55:55.963Z,54.80
2023-03-05T00:58:26.084Z,52.88
2023-03-05T01:00:59.400Z,50.70
2023-03-05T01:03:30.823Z,49.75
2023-03-05T01:06:01.909Z,46.90
2023-03-05T01:08:32.158Z,49.03
2023-03-05T01:11:02.091Z,48.40
2023-03-05T01:13:32.120Z,45.75
2023-03-05T01:16:02.925Z,46.35
2023-03-05T01:18:33.251Z,48.90
2023-03-05T01:21:03.507Z,48.70
2023-03-05T01:23:33.578Z,43.25
2023-03-05T01:26:03.693Z,44.85
2023-03-05T01:28:34.841Z,43.75
2023-03-05T01:31:04.904Z,39.03
2023-03-05T01:33:34.787Z,42.22
2023-03-05T01:36:04.955Z,45.60
2023-03-05T01:38:34.968Z,42.63
2023-03-05T01:41:04.833Z,44.15
2023-03-05T01:43:35.304Z,43.65
2023-03-05T01:46:33.729Z,40.13
2023-03-05T01:49:06.002Z,40.00
2023-03-05T01:51:45.283Z,42.17
2023-03-05T01:54:17.714Z,44.47
2023-03-05T01:56:51.345Z,41.63
2023-03-05T01:59:22.137Z,40.63
2023-03-05T02:01:56.248Z,35.90
2023-03-05T02:04:34.240Z,45.40
2023-03-05T02:07:04.924Z,36.63
2023-03-05T02:09:35.033Z,43.10
2023-03-05T02:12:04.933Z,39.17
2023-03-05T02:14:36.080Z,44.13
2023-03-05T02:17:08.013Z,42.95
2023-03-05T02:19:58.827Z,38.60
2023-03-05T02:22:28.856Z,41.40
2023-03-05T02:24:58.786Z,38.72
2023-03-05T02:27:39.064Z,42.28
2023-03-05T02:30:09.801Z,35.42
2023-03-05T02:32:39.937Z,47.33
2023-03-05T02:35:11.410Z,41.25
2023-03-05T02:37:42.242Z,42.95
2023-03-05T02:40:14.637Z,41.37
2023-03-05T02:42:45.511Z,40.72
2023-03-05T02:45:17.407Z,40.72
2023-03-05T02:47:47.579Z,43.95
2023-03-05T02:50:18.262Z,40.90
2023-03-05T02:52:48.295Z,43.13
2023-03-05T02:55:19.612Z,41.13
2023-03-05T02:57:49.988Z,41.92
2023-03-05T03:00:20.567Z,40.13
2023-03-05T03:02:50.712Z,37.30
2023-03-05T03:05:20.847Z,42.75
2023-03-05T03:07:52.101Z,47.47
2023-03-05T03:10:22.210Z,38.22
2023-03-05T03:12:52.130Z,36.80
2023-03-05T03:15:22.383Z,42.90
2023-03-05T03:17:52.471Z,42.80
2023-03-05T03:20:23.007Z,41.83
2023-03-05T03:22:53.687Z,45.37
2023-03-05T03:25:25.246Z,43.40
2023-03-05T03:27:55.317Z,44.60
2023-03-05T03:30:25.285Z,42.50
2023-03-05T03:32:55.987Z,40.95
2023-03-05T03:35:26.192Z,39.70
2023-03-05T03:37:56.304Z,43.60
2023-03-05T03:40:26.510Z,46.25
2023-03-05T03:42:56.769Z,46.33
2023-03-05T03:45:27.681Z,38.38
2023-03-05T03:47:57.746Z,44.47
2023-03-05T03:50:28.343Z,43.30
2023-03-05T03:52:58.453Z,37.88
2023-03-05T03:55:28.323Z,40.83
2023-03-05T03:57:58.410Z,41.60
2023-03-05T04:00:28.316Z,38.97
2023-03-05T04:02:58.221Z,39.53
2023-03-05T04:05:28.367Z,37.33
2023-03-05T04:08:00.550Z,40.88
2023-03-05T04:10:30.418Z,40.90
2023-03-05T04:13:00.374Z,37.08
2023-03-05T04:15:32.678Z,36.33
2023-03-05T04:18:02.964Z,43.88
2023-03-05T04:20:33.101Z,35.92
2023-03-05T04:23:02.948Z,39.60
2023-03-05T04:25:32.996Z,37.70
2023-03-05T04:28:02.896Z,40.05
2023-03-05T04:30:33.641Z,41.17
2023-03-05T04:33:03.661Z,42.13
2023-03-05T04:35:33.988Z,39.33
2023-03-05T04:38:04.000Z,43.20
2023-03-05T04:40:34.234Z,42.50
2023-03-05T04:43:04.377Z,39.55
2023-03-05T04:45:34.566Z,42.03
2023-03-05T04:48:04.630Z,48.63
2023-03-05T04:50:34.549Z,48.42
2023-03-05T04:53:05.242Z,40.75
2023-03-05T04:55:35.401Z,43.37
2023-03-05T04:58:05.627Z,41.25
2023-03-05T05:00:35.621Z,37.70
2023-03-05T05:03:05.800Z,40.42
2023-03-05T05:05:36.406Z,40.10
2023-03-05T05:08:06.511Z,44.63
2023-03-05T05:10:36.560Z,40.08
2023-03-05T05:13:06.454Z,44.72
2023-03-05T05:15:36.436Z,44.13
2023-03-05T05:18:06.430Z,44.20
2023-03-05T05:20:36.330Z,41.35
2023-03-05T05:23:06.254Z,39.60
2023-03-05T05:25:36.220Z,45.38
2023-03-05T05:28:06.302Z,47.67
2023-03-05T05:30:36.241Z,46.45
2023-03-05T05:33:06.205Z,48.85
2023-03-05T05:35:37.129Z,39.03
2023-03-05T05:38:07.179Z,45.28
2023-03-05T05:40:37.234Z,39.10
2023-03-05T05:43:07.437Z,43.05
2023-03-05T05:45:40.336Z,45.38
2023-03-05T05:48:10.679Z,41.22
2023-03-05T05:50:41.547Z,37.97
2023-03-05T05:53:11.587Z,40.10
2023-03-05T05:55:43.444Z,43.05
2023-03-05T05:58:13.741Z,44.53
2023-03-05T06:00:43.849Z,42.42
2023-03-05T06:03:13.750Z,43.58
2023-03-05T06:05:45.398Z,45.80
2023-03-05T06:08:15.586Z,45.92
2023-03-05T06:10:45.456Z,44.50
2023-03-05T06:13:15.364Z,46.42
2023-03-05T06:15:45.250Z,44.42
2023-03-05T06:18:15.195Z,42.40
2023-03-05T06:20:45.091Z,43.83
2023-03-05T06:23:14.894Z,42.72
2023-03-05T06:25:44.779Z,42.00
2023-03-05T06:28:14.720Z,43.72
2023-03-05T06:30:45.002Z,42.40
2023-03-05T06:33:15.440Z,40.20
2023-03-05T06:35:45.500Z,41.30
2023-03-05T06:38:15.361Z,43.63
2023-03-05T06:40:45.245Z,44.30
2023-03-05T06:43:15.165Z,46.63
2023-03-05T06:45:45.073Z,40.28
2023-03-05T06:48:15.080Z,42.38
2023-03-05T06:50:45.064Z,38.75
2023-03-05T06:53:14.941Z,39.20
2023-03-05T06:55:44.795Z,39.53
2023-03-05T06:58:14.881Z,41.63
2023-03-05T07:00:46.716Z,41.55
2023-03-05T07:03:17.101Z,43.78
2023-03-05T07:05:47.174Z,41.22
2023-03-05T07:08:17.066Z,46.65
2023-03-05T07:10:47.043Z,41.03
2023-03-05T07:13:16.884Z,40.00
2023-03-05T07:15:46.855Z,42.42
2023-03-05T07:18:16.753Z,41.88
2023-03-05T07:20:46.634Z,41.20
2023-03-05T07:23:16.510Z,43.97
2023-03-05T07:25:46.324Z,45.53
2023-03-05T07:28:17.020Z,42.88
2023-03-05T07:30:47.047Z,43.10
2023-03-05T07:33:17.317Z,43.47
2023-03-05T07:35:47.181Z,43.22
2023-03-05T07:38:17.158Z,46.35
2023-03-05T07:40:47.143Z,44.58
2023-03-05T07:43:17.506Z,40.47
2023-03-05T07:45:49.105Z,42.83
2023-03-05T07:50:51.358Z,39.70
2023-03-05T07:53:21.390Z,43.65
2023-03-05T07:55:51.268Z,48.63
2023-03-05T07:58:22.554Z,41.78
2023-03-05T08:03:22.287Z,40.78
2023-03-05T08:05:52.267Z,42.58
2023-03-05T08:08:22.243Z,42.03
2023-03-05T08:10:52.329Z,42.20
2023-03-05T08:13:22.206Z,45.50
2023-03-05T08:15:52.281Z,43.47
2023-03-05T08:18:22.210Z,40.88
2023-03-05T08:20:52.140Z,44.55
2023-03-05T08:23:22.067Z,42.63
2023-03-05T08:25:51.996Z,41.83
2023-03-05T08:28:22.016Z,42.10
2023-03-05T08:30:52.315Z,45.63
2023-03-05T08:33:22.888Z,43.23
2023-03-05T08:35:52.911Z,44.73
2023-03-05T08:38:23.228Z,44.03
2023-03-05T08:40:53.224Z,41.07
2023-03-05T08:43:23.109Z,42.97
2023-03-05T08:45:53.826Z,49.10
2023-03-05T08:48:23.913Z,45.42
2023-03-05T08:50:53.724Z,44.35
2023-03-05T08:53:24.216Z,46.08
2023-03-05T08:55:58.114Z,41.40
2023-03-05T08:58:29.057Z,44.03
2023-03-05T09:00:59.470Z,43.17
2023-03-05T09:03:30.137Z,45.73
2023-03-05T09:06:05.363Z,41.23
2023-03-05T09:08:35.969Z,41.75
2023-03-05T09:11:08.503Z,45.30
2023-03-05T09:13:39.040Z,43.47
2023-03-05T09:16:11.730Z,42.03
2023-03-05T09:18:42.916Z,40.30
2023-03-05T09:21:19.599Z,44.47
2023-03-05T09:23:50.007Z,43.30
2023-03-05T09:26:24.085Z,44.53
2023-03-05T09:28:54.370Z,40.92
2023-03-05T09:31:25.449Z,42.50
2023-03-05T09:36:29.008Z,48.35
2023-03-05T09:38:59.478Z,41.95
2023-03-05T09:41:39.430Z,45.27
2023-03-05T09:44:30.528Z,40.13
2023-03-05T09:47:13.298Z,40.00
2023-03-05T09:50:15.949Z,41.90
2023-03-05T09:52:57.227Z,40.45
2023-03-05T09:55:50.694Z,43.45
2023-03-05T09:58:35.702Z,43.85
2023-03-05T10:01:18.135Z,40.30
2023-03-05T10:03:57.356Z,44.42
2023-03-05T10:06:40.846Z,40.40
2023-03-05T10:09:13.707Z,42.30
2023-03-05T10:11:59.090Z,40.60
2023-03-05T10:14:32.770Z,39.78
2023-03-05T10:17:24.795Z,42.50
2023-03-05T10:20:23.912Z,39.63
2023-03-05T10:23:19.367Z,40.33
2023-03-05T10:25:55.672Z,39.42
2023-03-05T10:28:55.014Z,41.30
2023-03-05T10:31:47.647Z,40.78
2023-03-05T10:34:43.137Z,40.08
2023-03-05T10:37:21.916Z,42.20
2023-03-05T10:40:01.972Z,42.20
2023-03-05T10:42:49.102Z,44.92
2023-03-05T10:45:58.804Z,42.35
2023-03-05T10:48:38.013Z,41.85
2023-03-05T10:51:08.115Z,40.92
2023-03-05T10:53:58.641Z,43.20
2023-03-05T10:56:31.167Z,40.67
2023-03-05T10:59:01.563Z,40.70
2023-03-05T11:01:33.928Z,39.40
2023-03-05T11:04:08.447Z,39.97
2023-03-05T11:06:44.434Z,37.78
2023-03-05T11:09:34.918Z,40.58
2023-03-05T11:12:20.288Z,42.35
2023-03-05T11:15:07.862Z,42.80
2023-03-05T11:17:53.249Z,43.45
2023-03-05T11:20:29.225Z,42.70
2023-03-05T11:23:22.051Z,42.03
2023-03-05T11:26:04.194Z,39.97
2023-03-05T11:28:40.651Z,40.10
2023-03-05T11:31:36.075Z,45.75
2023-03-05T11:34:10.595Z,40.20
2023-03-05T11:36:46.714Z,40.17
2023-03-05T11:39:23.210Z,43.35
2023-03-05T11:42:01.287Z,44.30
2023-03-05T11:44:52.944Z,41.38
2023-03-05T11:47:48.109Z,48.10
2023-03-05T11:50:24.277Z,45.97
2023-03-05T11:53:15.305Z,47.80
2023-03-05T11:55:51.134Z,40.83
2023-03-05T11:58:28.150Z,46.00
2023-03-05T12:00:59.305Z,44.78
2023-03-05T12:03:35.427Z,46.25
2023-03-05T12:06:12.857Z,44.63
2023-03-05T12:08:47.291Z,45.00
2023-03-05T12:11:36.929Z,44.42
2023-03-05T12:14:18.579Z,47.53
2023-03-05T12:16:56.846Z,51.40
2023-03-05T12:21:17.402Z,113.38
2023-03-05T12:23:51.950Z,62.30
2023-03-05T12:27:01.712Z,68.82
2023-03-05T12:29:51.690Z,72.10
2023-03-05T12:32:27.928Z,79.30
2023-03-05T12:35:08.510Z,78.75
2023-03-05T12:37:38.643Z,68.28
2023-03-05T12:40:20.905Z,69.03
2023-03-05T12:43:05.422Z,62.53
2023-03-05T12:45:47.249Z,69.50
2023-03-05T12:48:17.472Z,66.32
2023-03-05T12:50:47.694Z,62.92
2023-03-05T12:53:20.628Z,74.07
2023-03-05T12:56:02.881Z,70.07
2023-03-05T12:58:46.588Z,63.95
2023-03-05T13:01:43.625Z,74.00
2023-03-05T13:04:26.081Z,69.65
2023-03-05T13:07:08.367Z,59.30
2023-03-05T13:09:38.675Z,58.53
2023-03-05T13:12:29.315Z,59.45
2023-03-05T13:15:11.705Z,62.17
2023-03-05T13:18:05.757Z,271.13
2023-03-05T13:20:44.950Z,491.95
2023-03-05T13:23:30.270Z,65.35
2023-03-05T13:26:06.363Z,64.57
2023-03-05T13:28:36.646Z,60.25
2023-03-05T13:31:20.646Z,60.10
2023-03-05T13:34:12.823Z,103.10
2023-03-05T13:36:50.253Z,81.35
2023-03-05T13:39:31.008Z,79.30
2023-03-05T13:42:06.862Z,80.53
2023-03-05T13:44:40.161Z,95.88
2023-03-05T13:47:11.559Z,120.15
2023-03-05T13:52:15.815Z,128.98
2023-03-05T13:57:39.356Z,127.75
2023-03-05T14:00:27.771Z,280.70
2023-03-05T14:03:00.602Z,412.75
2023-03-05T14:05:33.636Z,405.70
2023-03-05T14:08:04.107Z,402.40
2023-03-05T14:10:40.480Z,421.45
2023-03-05T14:13:21.992Z,423.75
2023-03-05T14:18:40.604Z,452.25
2023-03-05T14:21:16.373Z,492.92
2023-03-05T14:23:50.028Z,523.33
2023-03-05T14:26:29.323Z,525.42
2023-03-05T14:29:24.924Z,512.78
2023-03-05T14:32:00.277Z,508.02
2023-03-05T14:34:33.279Z,421.73
2023-03-05T14:43:04.125Z,304.88
2023-03-05T14:45:39.886Z,309.92
2023-03-05T14:48:11.197Z,307.23
2023-03-05T14:53:26.767Z,301.00
2023-03-05T14:56:02.027Z,292.77
2023-03-05T14:58:40.850Z,306.35
2023-03-05T15:01:16.633Z,287.13
2023-03-05T15:03:47.345Z,292.23
2023-03-05T15:06:32.829Z,289.73
2023-03-05T15:09:06.761Z,308.33
2023-03-05T15:11:36.995Z,283.05
2023-03-05T15:14:07.287Z,287.10
2023-03-05T15:16:42.056Z,281.13
2023-03-05T15:19:17.036Z,276.50
2023-03-05T15:21:51.588Z,278.48
2023-03-05T15:24:21.728Z,274.38
2023-03-05T15:26:51.876Z,151.25
2023-03-05T15:29:22.127Z,177.38
2023-03-05T15:31:58.997Z,50.95
2023-03-05T15:34:29.703Z,52.22
2023-03-05T15:36:59.929Z,51.43
2023-03-05T15:39:29.999Z,53.20
2023-03-05T15:42:00.452Z,55.05
2023-03-05T15:44:30.804Z,53.17
2023-03-05T15:47:06.747Z,54.67
2023-03-05T15:49:37.061Z,61.85
2023-03-05T15:52:10.124Z,53.40
2023-03-05T15:54:40.456Z,49.20
2023-03-05T15:57:15.353Z,57.83
2023-03-05T15:59:48.365Z,51.70
2023-03-05T16:02:18.679Z,50.08
2023-03-05T16:04:48.763Z,61.58
2023-03-05T16:07:19.791Z,53.38
2023-03-05T16:09:54.585Z,56.88
2023-03-05T16:12:30.277Z,54.88
2023-03-05T16:15:00.584Z,54.35
2023-03-05T16:17:35.898Z,50.03
2023-03-05T16:20:08.035Z,53.20
2023-03-05T16:22:38.279Z,52.10
2023-03-05T16:25:09.547Z,57.42
2023-03-05T16:27:42.132Z,57.00
2023-03-05T16:30:14.548Z,57.65
2023-03-05T16:32:47.819Z,62.13
2023-03-05T16:35:21.407Z,57.95
2023-03-05T16:37:56.710Z,55.33
2023-03-05T16:40:38.703Z,57.80
2023-03-05T16:43:19.714Z,64.40
2023-03-05T16:45:49.878Z,59.65
2023-03-05T16:48:19.993Z,63.42
2023-03-05T16:50:50.147Z,63.28
2023-03-05T16:53:20.231Z,57.58
2023-03-05T16:55:50.300Z,60.63
2023-03-05T16:58:24.837Z,63.50
2023-03-05T17:00:55.071Z,63.45
2023-03-05T17:03:25.764Z,59.65
2023-03-05T17:05:56.740Z,63.43
2023-03-05T17:08:29.858Z,66.22
2023-03-05T17:11:00.319Z,65.40
2023-03-05T17:13:30.599Z,66.90
2023-03-05T17:16:00.908Z,63.22
2023-03-05T17:18:31.487Z,67.13
2023-03-05T17:21:04.486Z,64.23
2023-03-05T17:23:37.558Z,64.20
2023-03-05T17:26:15.597Z,65.18
2023-03-05T17:28:46.729Z,68.53
2023-03-05T17:31:18.493Z,64.07
2023-03-05T17:33:48.614Z,65.00
2023-03-05T17:36:24.408Z,69.32
2023-03-05T17:38:55.530Z,62.10
2023-03-05T17:41:26.076Z,62.13
2023-03-05T17:43:58.161Z,62.13
2023-03-05T17:46:28.312Z,61.22
2023-03-05T17:49:00.132Z,68.03
2023-03-05T17:51:30.418Z,67.43
2023-03-05T17:54:01.065Z,60.78
2023-03-05T17:56:31.220Z,62.33
2023-03-05T17:59:01.638Z,68.13
2023-03-05T18:01:35.066Z,62.37
2023-03-05T18:04:09.397Z,63.28
2023-03-05T18:06:40.116Z,60.85
2023-03-05T18:09:10.275Z,65.88
2023-03-05T18:11:40.683Z,64.20
2023-03-05T18:14:13.439Z,68.87
2023-03-05T18:16:44.825Z,64.55
2023-03-05T18:19:14.961Z,65.03
2023-03-05T18:21:45.381Z,61.83
2023-03-05T18:24:16.006Z,61.43
2023-03-05T18:26:46.193Z,62.30
2023-03-05T18:29:18.632Z,62.28
2023-03-05T18:31:49.017Z,63.65
2023-03-05T18:34:20.202Z,63.55
2023-03-05T18:36:53.532Z,67.85
2023-03-05T18:39:23.907Z,60.78
2023-03-05T18:42:13.017Z,62.23
2023-03-05T18:45:40.879Z,63.83
2023-03-05T18:48:11.085Z,62.53
2023-03-05T18:50:41.220Z,61.58
2023-03-05T18:53:11.347Z,67.68
2023-03-05T18:55:44.430Z,62.88
2023-03-05T18:58:18.045Z,60.38
2023-03-05T19:00:49.286Z,68.07
2023-03-05T19:03:22.815Z,63.30
2023-03-05T19:05:53.564Z,60.17
2023-03-05T19:08:24.546Z,65.33
2023-03-05T19:10:54.648Z,60.33
2023-03-05T19:13:47.984Z,67.50
2023-03-05T19:16:22.128Z,68.78
2023-03-05T19:19:27.450Z,66.97
2023-03-05T19:22:02.270Z,66.75
2023-03-05T19:24:33.670Z,70.88
2023-03-05T19:27:12.161Z,76.25
2023-03-05T19:29:44.694Z,74.28
2023-03-05T19:32:18.165Z,74.85
2023-03-05T19:34:48.284Z,74.00
2023-03-05T19:37:18.482Z,83.15
2023-03-05T19:39:48.546Z,79.20
2023-03-05T19:42:18.611Z,78.28
2023-03-05T19:44:48.652Z,76.25
2023-03-05T19:47:18.603Z,76.82
2023-03-05T19:49:48.400Z,78.63
2023-03-05T19:52:18.484Z,80.50
2023-03-05T19:54:48.339Z,69.95
2023-03-05T19:57:18.162Z,68.63
2023-03-05T19:59:48.924Z,76.78
2023-03-05T20:02:23.566Z,77.47
2023-03-05T20:04:53.976Z,79.80
2023-03-05T20:07:23.957Z,72.13
2023-03-05T20:09:55.591Z,76.57
2023-03-05T20:12:26.164Z,75.15
2023-03-05T20:14:56.013Z,75.05
2023-03-05T20:17:25.980Z,73.45
2023-03-05T20:19:57.614Z,74.32
2023-03-05T20:22:27.641Z,67.80
2023-03-05T20:24:57.519Z,69.53
2023-03-05T20:27:27.369Z,69.65
2023-03-05T20:29:57.218Z,69.63
2023-03-05T20:32:27.113Z,73.88
2023-03-05T20:34:58.404Z,70.97
2023-03-05T20:40:58.463Z,70.93
2023-03-05T20:43:34.119Z,71.43
2023-03-05T20:46:05.250Z,68.90
2023-03-05T20:48:36.659Z,72.47
2023-03-05T20:51:15.401Z,71.25
2023-03-05T20:53:45.787Z,70.63
2023-03-05T20:56:15.772Z,74.88
2023-03-05T20:58:45.780Z,65.50
2023-03-05T21:01:15.677Z,70.40
2023-03-05T21:03:45.498Z,70.60
2023-03-05T21:06:15.973Z,72.18
2023-03-05T21:08:46.006Z,67.45
2023-03-05T21:11:17.118Z,72.80
2023-03-05T21:16:24.534Z,71.90
2023-03-05T21:18:55.136Z,66.72
2023-03-05T21:21:25.669Z,73.67
2023-03-05T21:23:55.845Z,74.83
2023-03-05T21:26:25.805Z,69.40
2023-03-05T21:28:55.741Z,68.15
2023-03-05T21:31:25.783Z,66.90
2023-03-05T21:33:55.694Z,70.13
2023-03-05T21:36:25.566Z,66.35
2023-03-05T21:38:55.586Z,70.03
2023-03-05T21:41:25.944Z,77.25
2023-03-05T21:43:56.398Z,69.32
2023-03-05T21:46:26.550Z,67.82
2023-03-05T21:48:56.368Z,71.03
2023-03-05T21:52:05.395Z,66.20
2023-03-05T21:54:35.429Z,72.45
2023-03-05T21:57:05.846Z,70.38
2023-03-05T21:59:36.397Z,72.82
2023-03-05T22:02:06.394Z,65.47
2023-03-05T22:04:36.224Z,71.68
2023-03-05T22:07:06.595Z,67.90
2023-03-05T22:09:36.898Z,74.73
2023-03-05T22:12:46.489Z,79.13
2023-03-05T22:15:25.322Z,67.82
2023-03-05T22:17:55.638Z,71.93
2023-03-05T22:20:25.809Z,73.55
2023-03-05T22:22:55.804Z,76.28
2023-03-05T22:25:26.212Z,78.88
2023-03-05T22:27:56.618Z,72.80
2023-03-05T22:30:26.717Z,72.13
2023-03-05T22:32:56.847Z,72.75
2023-03-05T22:35:27.342Z,67.90
2023-03-05T22:37:57.322Z,68.03
2023-03-05T22:40:27.395Z,64.55
2023-03-05T22:42:57.775Z,68.22
2023-03-05T22:45:27.786Z,72.83
2023-03-05T22:47:57.608Z,67.40
2023-03-05T22:50:28.059Z,68.30
2023-03-05T22:52:58.138Z,66.75
2023-03-05T22:55:28.040Z,69.25
2023-03-05T22:57:57.948Z,67.63
2023-03-05T23:00:28.948Z,69.68
2023-03-05T23:02:59.238Z,71.43
2023-03-05T23:05:29.704Z,67.93
2023-03-05T23:08:01.172Z,72.60
2023-03-05T23:13:03.307Z,72.55
2023-03-05T23:15:37.018Z,69.30
2023-03-05T23:18:08.899Z,66.03
2023-03-05T23:20:40.045Z,70.40
2023-03-05T23:23:10.348Z,69.32
2023-03-05T23:25:41.417Z,70.57
2023-03-05T23:28:11.826Z,78.00
2023-03-05T23:30:41.939Z,88.78
2023-03-05T23:33:20.499Z,81.80
2023-03-05T23:36:02.739Z,79.88
2023-03-05T23:38:33.035Z,83.80
2023-03-05T23:41:05.028Z,82.57
2023-03-05T23:43:35.104Z,80.88
2023-03-05T23:46:05.070Z,83.15
2023-03-05T23:48:35.035Z,83.43
2023-03-05T23:51:09.246Z,78.65
2023-03-05T23:53:40.078Z,77.22
2023-03-05T23:56:14.479Z,88.67
2023-03-05T23:58:44.979Z,86.15
